sensor_id;sensor_type;location;lat;lon;timestamp;temperature;humidity
12329;DHT22;6230;52.390;10.256;2023-07-31T00:00:44;20.60;56.90
12329;DHT22;6230;52.390;10.256;2023-07-31T00:03:11;20.60;56.90
12329;DHT22;6230;52.390;10.256;2023-07-31T00:05:37;20.60;56.90
12329;DHT22;6230;52.390;10.256;2023-07-31T00:08:02;20.60;57.00
12329;DHT22;6230;52.390;10.256;2023-07-31T00:10:28;20.60;57.00
12329;DHT22;6230;52.390;10.256;2023-07-31T00:12:53;20.60;56.90
12329;DHT22;6230;52.390;10.256;2023-07-31T00:15:19;20.60;56.90
12329;DHT22;6230;52.390;10.256;2023-07-31T00:17:44;20.70;56.90
12329;DHT22;6230;52.390;10.256;2023-07-31T00:20:10;20.70;56.70
12329;DHT22;6230;52.390;10.256;2023-07-31T00:22:36;20.80;56.70
12329;DHT22;6230;52.390;10.256;2023-07-31T00:25:01;20.80;56.70
12329;DHT22;6230;52.390;10.256;2023-07-31T00:27:27;20.90;56.60
12329;DHT22;6230;52.390;10.256;2023-07-31T00:29:52;20.90;56.60
12329;DHT22;6230;52.390;10.256;2023-07-31T00:32:18;20.90;56.60
12329;DHT22;6230;52.390;10.256;2023-07-31T00:34:43;21.00;56.60
12329;DHT22;6230;52.390;10.256;2023-07-31T00:37:09;20.90;56.60
12329;DHT22;6230;52.390;10.256;2023-07-31T00:39:34;20.90;56.60
12329;DHT22;6230;52.390;10.256;2023-07-31T00:42:01;20.90;56.60
12329;DHT22;6230;52.390;10.256;2023-07-31T00:44:27;20.90;56.60
12329;DHT22;6230;52.390;10.256;2023-07-31T00:46:52;20.90;56.70
12329;DHT22;6230;52.390;10.256;2023-07-31T00:49:20;20.90;56.80
12329;DHT22;6230;52.390;10.256;2023-07-31T00:51:46;20.90;56.80
12329;DHT22;6230;52.390;10.256;2023-07-31T00:54:11;20.90;56.80
12329;DHT22;6230;52.390;10.256;2023-07-31T00:56:38;20.80;56.80
12329;DHT22;6230;52.390;10.256;2023-07-31T00:59:03;20.80;56.80
12329;DHT22;6230;52.390;10.256;2023-07-31T01:01:29;20.80;57.00
12329;DHT22;6230;52.390;10.256;2023-07-31T01:03:55;20.80;57.30
12329;DHT22;6230;52.390;10.256;2023-07-31T01:06:48;20.70;57.40
12329;DHT22;6230;52.390;10.256;2023-07-31T01:09:28;20.60;57.60
12329;DHT22;6230;52.390;10.256;2023-07-31T01:12:01;20.60;57.60
12329;DHT22;6230;52.390;10.256;2023-07-31T01:14:27;20.50;57.80
12329;DHT22;6230;52.390;10.256;2023-07-31T01:16:52;20.50;58.00
12329;DHT22;6230;52.390;10.256;2023-07-31T01:19:23;20.50;58.00
12329;DHT22;6230;52.390;10.256;2023-07-31T01:28:02;20.40;59.00
12329;DHT22;6230;52.390;10.256;2023-07-31T01:30:32;20.40;58.90
12329;DHT22;6230;52.390;10.256;2023-07-31T01:33:03;20.40;58.80
12329;DHT22;6230;52.390;10.256;2023-07-31T01:35:37;20.30;59.00
12329;DHT22;6230;52.390;10.256;2023-07-31T01:38:04;20.30;58.90
12329;DHT22;6230;52.390;10.256;2023-07-31T01:40:29;20.30;59.20
12329;DHT22;6230;52.390;10.256;2023-07-31T01:42:55;20.30;59.70
12329;DHT22;6230;52.390;10.256;2023-07-31T01:45:21;20.30;59.50
12329;DHT22;6230;52.390;10.256;2023-07-31T01:47:46;20.30;59.60
12329;DHT22;6230;52.390;10.256;2023-07-31T01:50:12;20.30;59.40
12329;DHT22;6230;52.390;10.256;2023-07-31T01:52:37;20.30;59.40
12329;DHT22;6230;52.390;10.256;2023-07-31T01:55:03;20.30;59.50
12329;DHT22;6230;52.390;10.256;2023-07-31T01:57:29;20.30;59.60
12329;DHT22;6230;52.390;10.256;2023-07-31T01:59:54;20.20;59.90
12329;DHT22;6230;52.390;10.256;2023-07-31T02:02:21;20.20;60.40
12329;DHT22;6230;52.390;10.256;2023-07-31T02:04:48;20.20;60.60
12329;DHT22;6230;52.390;10.256;2023-07-31T02:07:14;20.10;60.60
12329;DHT22;6230;52.390;10.256;2023-07-31T02:09:39;20.10;60.60
12329;DHT22;6230;52.390;10.256;2023-07-31T02:12:05;20.10;60.60
12329;DHT22;6230;52.390;10.256;2023-07-31T02:14:31;20.10;60.80
12329;DHT22;6230;52.390;10.256;2023-07-31T02:16:56;20.10;61.00
12329;DHT22;6230;52.390;10.256;2023-07-31T02:19:22;20.10;61.30
12329;DHT22;6230;52.390;10.256;2023-07-31T02:21:47;20.10;61.00
12329;DHT22;6230;52.390;10.256;2023-07-31T02:24:13;20.10;61.00
12329;DHT22;6230;52.390;10.256;2023-07-31T02:26:38;20.10;60.90
12329;DHT22;6230;52.390;10.256;2023-07-31T02:29:04;20.10;60.70
12329;DHT22;6230;52.390;10.256;2023-07-31T02:31:29;20.10;60.90
12329;DHT22;6230;52.390;10.256;2023-07-31T02:33:55;20.00;60.90
12329;DHT22;6230;52.390;10.256;2023-07-31T02:36:20;20.00;61.10
12329;DHT22;6230;52.390;10.256;2023-07-31T02:38:46;20.00;61.40
12329;DHT22;6230;52.390;10.256;2023-07-31T02:41:11;20.00;61.30
12329;DHT22;6230;52.390;10.256;2023-07-31T02:43:37;20.00;61.30
12329;DHT22;6230;52.390;10.256;2023-07-31T02:46:02;20.00;61.30
12329;DHT22;6230;52.390;10.256;2023-07-31T02:48:28;20.00;61.30
12329;DHT22;6230;52.390;10.256;2023-07-31T02:50:53;19.90;61.30
12329;DHT22;6230;52.390;10.256;2023-07-31T02:53:19;19.90;61.40
12329;DHT22;6230;52.390;10.256;2023-07-31T02:55:44;19.90;61.40
12329;DHT22;6230;52.390;10.256;2023-07-31T02:58:10;19.90;61.50
12329;DHT22;6230;52.390;10.256;2023-07-31T03:00:35;19.80;61.60
12329;DHT22;6230;52.390;10.256;2023-07-31T03:03:01;19.90;61.60
12329;DHT22;6230;52.390;10.256;2023-07-31T03:05:26;19.90;61.60
12329;DHT22;6230;52.390;10.256;2023-07-31T03:07:52;19.80;61.60
12329;DHT22;6230;52.390;10.256;2023-07-31T03:10:17;19.80;61.50
12329;DHT22;6230;52.390;10.256;2023-07-31T03:12:46;19.80;61.70
12329;DHT22;6230;52.390;10.256;2023-07-31T03:15:12;19.80;61.80
12329;DHT22;6230;52.390;10.256;2023-07-31T03:17:38;19.80;61.70
12329;DHT22;6230;52.390;10.256;2023-07-31T03:20:04;19.90;61.70
12329;DHT22;6230;52.390;10.256;2023-07-31T03:22:29;19.80;61.60
12329;DHT22;6230;52.390;10.256;2023-07-31T03:24:55;19.80;61.50
12329;DHT22;6230;52.390;10.256;2023-07-31T03:27:20;19.90;61.70
12329;DHT22;6230;52.390;10.256;2023-07-31T03:29:46;19.90;61.50
12329;DHT22;6230;52.390;10.256;2023-07-31T03:32:11;19.90;61.60
12329;DHT22;6230;52.390;10.256;2023-07-31T03:34:37;19.90;61.60
12329;DHT22;6230;52.390;10.256;2023-07-31T03:37:03;19.90;61.60
12329;DHT22;6230;52.390;10.256;2023-07-31T03:39:30;19.90;61.40
12329;DHT22;6230;52.390;10.256;2023-07-31T03:41:55;19.90;61.40
12329;DHT22;6230;52.390;10.256;2023-07-31T03:44:21;19.90;61.40
12329;DHT22;6230;52.390;10.256;2023-07-31T03:46:46;19.90;61.30
12329;DHT22;6230;52.390;10.256;2023-07-31T03:49:12;19.90;61.20
12329;DHT22;6230;52.390;10.256;2023-07-31T03:51:38;19.90;61.20
12329;DHT22;6230;52.390;10.256;2023-07-31T03:54:03;20.00;61.20
12329;DHT22;6230;52.390;10.256;2023-07-31T03:56:29;20.00;61.20
12329;DHT22;6230;52.390;10.256;2023-07-31T03:58:54;20.00;61.20
12329;DHT22;6230;52.390;10.256;2023-07-31T04:01:20;20.00;61.20
12329;DHT22;6230;52.390;10.256;2023-07-31T04:03:45;20.00;61.30
12329;DHT22;6230;52.390;10.256;2023-07-31T04:06:12;19.90;61.20
12329;DHT22;6230;52.390;10.256;2023-07-31T04:08:38;19.90;61.20
12329;DHT22;6230;52.390;10.256;2023-07-31T04:11:03;19.90;61.20
12329;DHT22;6230;52.390;10.256;2023-07-31T04:13:29;19.90;61.30
12329;DHT22;6230;52.390;10.256;2023-07-31T04:15:55;19.90;61.30
12329;DHT22;6230;52.390;10.256;2023-07-31T04:18:21;19.90;61.30
12329;DHT22;6230;52.390;10.256;2023-07-31T04:20:46;19.90;61.30
12329;DHT22;6230;52.390;10.256;2023-07-31T04:23:12;19.90;61.30
12329;DHT22;6230;52.390;10.256;2023-07-31T04:25:38;19.90;61.40
12329;DHT22;6230;52.390;10.256;2023-07-31T04:28:03;19.90;61.30
12329;DHT22;6230;52.390;10.256;2023-07-31T04:30:29;19.90;61.60
12329;DHT22;6230;52.390;10.256;2023-07-31T04:32:54;19.90;61.90
12329;DHT22;6230;52.390;10.256;2023-07-31T04:35:20;19.80;61.90
12329;DHT22;6230;52.390;10.256;2023-07-31T04:37:45;19.80;62.00
12329;DHT22;6230;52.390;10.256;2023-07-31T04:40:14;19.80;62.00
12329;DHT22;6230;52.390;10.256;2023-07-31T04:42:39;19.80;62.20
12329;DHT22;6230;52.390;10.256;2023-07-31T04:45:05;19.80;62.20
12329;DHT22;6230;52.390;10.256;2023-07-31T04:47:31;19.80;62.20
12329;DHT22;6230;52.390;10.256;2023-07-31T04:49:56;19.80;62.40
12329;DHT22;6230;52.390;10.256;2023-07-31T04:52:22;19.80;62.40
12329;DHT22;6230;52.390;10.256;2023-07-31T04:54:47;19.80;62.60
12329;DHT22;6230;52.390;10.256;2023-07-31T04:57:14;19.80;62.40
12329;DHT22;6230;52.390;10.256;2023-07-31T04:59:39;19.80;62.50
12329;DHT22;6230;52.390;10.256;2023-07-31T05:02:05;19.80;62.50
12329;DHT22;6230;52.390;10.256;2023-07-31T05:04:30;19.80;62.50
12329;DHT22;6230;52.390;10.256;2023-07-31T05:06:56;19.80;62.40
12329;DHT22;6230;52.390;10.256;2023-07-31T05:09:22;19.80;62.70
12329;DHT22;6230;52.390;10.256;2023-07-31T05:11:47;19.80;62.50
12329;DHT22;6230;52.390;10.256;2023-07-31T05:14:13;19.80;62.80
12329;DHT22;6230;52.390;10.256;2023-07-31T05:16:38;19.70;62.90
12329;DHT22;6230;52.390;10.256;2023-07-31T05:19:04;19.70;63.30
12329;DHT22;6230;52.390;10.256;2023-07-31T05:21:30;19.70;63.60
12329;DHT22;6230;52.390;10.256;2023-07-31T05:23:55;19.70;63.50
12329;DHT22;6230;52.390;10.256;2023-07-31T05:26:21;19.60;64.10
12329;DHT22;6230;52.390;10.256;2023-07-31T05:28:46;19.60;64.10
12329;DHT22;6230;52.390;10.256;2023-07-31T05:31:12;19.60;64.30
12329;DHT22;6230;52.390;10.256;2023-07-31T05:33:37;19.60;64.20
12329;DHT22;6230;52.390;10.256;2023-07-31T05:36:03;19.60;64.10
12329;DHT22;6230;52.390;10.256;2023-07-31T05:38:28;19.60;64.20
12329;DHT22;6230;52.390;10.256;2023-07-31T05:40:55;19.60;64.20
12329;DHT22;6230;52.390;10.256;2023-07-31T05:43:20;19.60;64.10
12329;DHT22;6230;52.390;10.256;2023-07-31T05:45:46;19.50;64.30
12329;DHT22;6230;52.390;10.256;2023-07-31T05:48:11;19.50;64.20
12329;DHT22;6230;52.390;10.256;2023-07-31T05:50:37;19.50;64.40
12329;DHT22;6230;52.390;10.256;2023-07-31T05:53:04;19.50;64.30
12329;DHT22;6230;52.390;10.256;2023-07-31T05:55:30;19.50;64.30
12329;DHT22;6230;52.390;10.256;2023-07-31T05:57:55;19.50;64.50
12329;DHT22;6230;52.390;10.256;2023-07-31T06:00:21;19.50;64.40
12329;DHT22;6230;52.390;10.256;2023-07-31T06:02:47;19.50;64.80
12329;DHT22;6230;52.390;10.256;2023-07-31T06:05:13;19.50;65.00
12329;DHT22;6230;52.390;10.256;2023-07-31T06:07:39;19.50;65.10
12329;DHT22;6230;52.390;10.256;2023-07-31T06:10:05;19.50;65.00
12329;DHT22;6230;52.390;10.256;2023-07-31T06:12:33;19.60;65.10
12329;DHT22;6230;52.390;10.256;2023-07-31T06:14:59;19.60;65.40
12329;DHT22;6230;52.390;10.256;2023-07-31T06:17:25;19.60;65.40
12329;DHT22;6230;52.390;10.256;2023-07-31T06:19:51;19.60;65.50
12329;DHT22;6230;52.390;10.256;2023-07-31T06:22:18;19.60;65.30
12329;DHT22;6230;52.390;10.256;2023-07-31T06:24:44;19.60;65.30
12329;DHT22;6230;52.390;10.256;2023-07-31T06:27:10;19.60;65.30
12329;DHT22;6230;52.390;10.256;2023-07-31T06:29:36;19.60;65.50
12329;DHT22;6230;52.390;10.256;2023-07-31T06:32:02;19.60;65.50
12329;DHT22;6230;52.390;10.256;2023-07-31T06:34:27;19.60;65.40
12329;DHT22;6230;52.390;10.256;2023-07-31T06:36:53;19.70;65.70
12329;DHT22;6230;52.390;10.256;2023-07-31T06:39:18;19.70;65.70
12329;DHT22;6230;52.390;10.256;2023-07-31T06:41:44;19.70;66.00
12329;DHT22;6230;52.390;10.256;2023-07-31T06:44:10;19.70;65.90
12329;DHT22;6230;52.390;10.256;2023-07-31T06:46:36;19.70;66.50
12329;DHT22;6230;52.390;10.256;2023-07-31T06:49:01;19.70;66.40
12329;DHT22;6230;52.390;10.256;2023-07-31T06:51:27;19.80;66.70
12329;DHT22;6230;52.390;10.256;2023-07-31T06:53:52;19.80;66.80
12329;DHT22;6230;52.390;10.256;2023-07-31T06:56:18;19.80;66.90
12329;DHT22;6230;52.390;10.256;2023-07-31T06:58:44;19.80;66.90
12329;DHT22;6230;52.390;10.256;2023-07-31T07:01:09;19.80;67.00
12329;DHT22;6230;52.390;10.256;2023-07-31T07:03:35;19.80;67.00
12329;DHT22;6230;52.390;10.256;2023-07-31T07:06:00;19.80;67.10
12329;DHT22;6230;52.390;10.256;2023-07-31T07:08:26;19.80;67.00
12329;DHT22;6230;52.390;10.256;2023-07-31T07:10:52;19.80;67.20
12329;DHT22;6230;52.390;10.256;2023-07-31T07:13:17;19.80;67.60
12329;DHT22;6230;52.390;10.256;2023-07-31T07:15:47;19.70;67.50
12329;DHT22;6230;52.390;10.256;2023-07-31T07:18:13;19.70;67.50
12329;DHT22;6230;52.390;10.256;2023-07-31T07:20:39;19.70;67.60
12329;DHT22;6230;52.390;10.256;2023-07-31T07:23:05;19.70;67.60
12329;DHT22;6230;52.390;10.256;2023-07-31T07:25:30;19.70;67.70
12329;DHT22;6230;52.390;10.256;2023-07-31T07:27:56;19.70;67.80
12329;DHT22;6230;52.390;10.256;2023-07-31T07:30:22;19.60;67.60
12329;DHT22;6230;52.390;10.256;2023-07-31T07:32:49;19.60;67.60
12329;DHT22;6230;52.390;10.256;2023-07-31T07:35:14;19.70;67.60
12329;DHT22;6230;52.390;10.256;2023-07-31T07:37:40;19.70;67.50
12329;DHT22;6230;52.390;10.256;2023-07-31T07:40:06;19.70;67.50
12329;DHT22;6230;52.390;10.256;2023-07-31T07:42:31;19.70;67.50
12329;DHT22;6230;52.390;10.256;2023-07-31T07:44:57;19.70;67.60
12329;DHT22;6230;52.390;10.256;2023-07-31T07:47:22;19.70;67.50
12329;DHT22;6230;52.390;10.256;2023-07-31T07:49:48;19.70;67.60
12329;DHT22;6230;52.390;10.256;2023-07-31T07:52:13;19.70;67.50
12329;DHT22;6230;52.390;10.256;2023-07-31T07:54:39;19.70;67.50
12329;DHT22;6230;52.390;10.256;2023-07-31T07:57:04;19.80;67.50
12329;DHT22;6230;52.390;10.256;2023-07-31T07:59:30;19.80;67.50
12329;DHT22;6230;52.390;10.256;2023-07-31T08:01:55;19.90;67.40
12329;DHT22;6230;52.390;10.256;2023-07-31T08:04:22;20.00;67.40
12329;DHT22;6230;52.390;10.256;2023-07-31T08:06:48;20.00;67.40
12329;DHT22;6230;52.390;10.256;2023-07-31T08:09:14;20.00;67.60
12329;DHT22;6230;52.390;10.256;2023-07-31T08:11:39;20.10;67.60
12329;DHT22;6230;52.390;10.256;2023-07-31T08:14:05;20.20;67.50
12329;DHT22;6230;52.390;10.256;2023-07-31T08:16:30;20.20;67.50
12329;DHT22;6230;52.390;10.256;2023-07-31T08:18:56;20.20;67.80
12329;DHT22;6230;52.390;10.256;2023-07-31T08:21:22;20.20;67.70
12329;DHT22;6230;52.390;10.256;2023-07-31T08:23:47;20.30;67.60
12329;DHT22;6230;52.390;10.256;2023-07-31T08:26:17;20.30;67.50
12329;DHT22;6230;52.390;10.256;2023-07-31T08:28:43;20.40;67.60
12329;DHT22;6230;52.390;10.256;2023-07-31T08:31:08;20.40;67.70
12329;DHT22;6230;52.390;10.256;2023-07-31T08:33:34;20.40;67.50
12329;DHT22;6230;52.390;10.256;2023-07-31T08:36:00;20.50;67.60
12329;DHT22;6230;52.390;10.256;2023-07-31T08:38:26;20.50;67.40
12329;DHT22;6230;52.390;10.256;2023-07-31T08:40:52;20.50;67.40
12329;DHT22;6230;52.390;10.256;2023-07-31T08:43:20;20.50;67.40
12329;DHT22;6230;52.390;10.256;2023-07-31T08:45:47;20.50;67.50
12329;DHT22;6230;52.390;10.256;2023-07-31T08:48:15;20.50;67.80
12329;DHT22;6230;52.390;10.256;2023-07-31T08:50:41;20.40;67.80
12329;DHT22;6230;52.390;10.256;2023-07-31T08:53:07;20.40;67.90
12329;DHT22;6230;52.390;10.256;2023-07-31T08:55:33;20.40;68.00
12329;DHT22;6230;52.390;10.256;2023-07-31T08:57:58;20.40;68.10
12329;DHT22;6230;52.390;10.256;2023-07-31T09:00:25;20.40;68.00
12329;DHT22;6230;52.390;10.256;2023-07-31T09:03:13;20.40;68.00
12329;DHT22;6230;52.390;10.256;2023-07-31T09:05:43;20.40;67.90
12329;DHT22;6230;52.390;10.256;2023-07-31T09:08:09;20.40;68.10
12329;DHT22;6230;52.390;10.256;2023-07-31T09:10:41;20.40;67.90
12329;DHT22;6230;52.390;10.256;2023-07-31T09:13:06;20.40;67.90
12329;DHT22;6230;52.390;10.256;2023-07-31T09:15:33;20.40;67.70
12329;DHT22;6230;52.390;10.256;2023-07-31T09:18:00;20.40;67.60
12329;DHT22;6230;52.390;10.256;2023-07-31T09:20:26;20.40;67.60
12329;DHT22;6230;52.390;10.256;2023-07-31T09:22:52;20.40;67.60
12329;DHT22;6230;52.390;10.256;2023-07-31T09:25:22;20.40;67.60
12329;DHT22;6230;52.390;10.256;2023-07-31T09:27:59;20.50;67.50
12329;DHT22;6230;52.390;10.256;2023-07-31T09:30:25;20.50;67.40
12329;DHT22;6230;52.390;10.256;2023-07-31T09:33:00;20.60;67.40
12329;DHT22;6230;52.390;10.256;2023-07-31T09:35:30;20.60;67.40
12329;DHT22;6230;52.390;10.256;2023-07-31T09:38:10;20.50;67.60
12329;DHT22;6230;52.390;10.256;2023-07-31T09:40:40;20.50;67.70
12329;DHT22;6230;52.390;10.256;2023-07-31T09:43:11;20.50;67.60
12329;DHT22;6230;52.390;10.256;2023-07-31T09:45:41;20.50;67.70
12329;DHT22;6230;52.390;10.256;2023-07-31T09:48:12;20.50;67.60
12329;DHT22;6230;52.390;10.256;2023-07-31T09:50:39;20.50;67.80
12329;DHT22;6230;52.390;10.256;2023-07-31T09:53:06;20.50;67.90
12329;DHT22;6230;52.390;10.256;2023-07-31T09:55:32;20.50;68.00
12329;DHT22;6230;52.390;10.256;2023-07-31T09:57:58;20.50;68.00
12329;DHT22;6230;52.390;10.256;2023-07-31T10:00:24;20.50;68.10
12329;DHT22;6230;52.390;10.256;2023-07-31T10:02:54;20.50;68.30
12329;DHT22;6230;52.390;10.256;2023-07-31T10:05:23;20.50;68.20
12329;DHT22;6230;52.390;10.256;2023-07-31T10:07:53;20.50;68.20
12329;DHT22;6230;52.390;10.256;2023-07-31T10:10:21;20.50;68.30
12329;DHT22;6230;52.390;10.256;2023-07-31T10:12:48;20.50;68.20
12329;DHT22;6230;52.390;10.256;2023-07-31T10:15:15;20.50;68.70
12329;DHT22;6230;52.390;10.256;2023-07-31T10:17:41;20.50;68.80
12329;DHT22;6230;52.390;10.256;2023-07-31T10:20:08;20.50;68.90
12329;DHT22;6230;52.390;10.256;2023-07-31T10:22:34;20.50;68.90
12329;DHT22;6230;52.390;10.256;2023-07-31T10:25:01;20.50;68.80
12329;DHT22;6230;52.390;10.256;2023-07-31T10:27:27;20.60;68.90
12329;DHT22;6230;52.390;10.256;2023-07-31T10:29:55;20.60;69.10
12329;DHT22;6230;52.390;10.256;2023-07-31T10:32:21;20.60;69.00
12329;DHT22;6230;52.390;10.256;2023-07-31T10:34:49;20.60;69.00
12329;DHT22;6230;52.390;10.256;2023-07-31T10:37:36;20.60;69.00
12329;DHT22;6230;52.390;10.256;2023-07-31T10:40:13;20.60;69.40
12329;DHT22;6230;52.390;10.256;2023-07-31T10:42:49;20.70;69.50
12329;DHT22;6230;52.390;10.256;2023-07-31T10:45:44;20.70;69.20
12329;DHT22;6230;52.390;10.256;2023-07-31T10:48:15;20.80;69.20
12329;DHT22;6230;52.390;10.256;2023-07-31T10:50:52;20.80;69.20
12329;DHT22;6230;52.390;10.256;2023-07-31T10:53:31;20.90;69.20
12329;DHT22;6230;52.390;10.256;2023-07-31T10:56:01;20.90;69.20
12329;DHT22;6230;52.390;10.256;2023-07-31T10:58:27;21.00;69.20
12329;DHT22;6230;52.390;10.256;2023-07-31T11:00:57;21.00;69.20
12329;DHT22;6230;52.390;10.256;2023-07-31T11:03:47;21.20;69.30
12329;DHT22;6230;52.390;10.256;2023-07-31T11:06:15;21.30;69.40
12329;DHT22;6230;52.390;10.256;2023-07-31T11:08:49;21.40;69.20
12329;DHT22;6230;52.390;10.256;2023-07-31T11:11:16;21.50;69.20
12329;DHT22;6230;52.390;10.256;2023-07-31T11:13:47;21.50;69.00
12329;DHT22;6230;52.390;10.256;2023-07-31T11:16:15;21.60;69.00
12329;DHT22;6230;52.390;10.256;2023-07-31T11:18:43;21.60;68.80
12329;DHT22;6230;52.390;10.256;2023-07-31T11:21:19;21.70;68.90
12329;DHT22;6230;52.390;10.256;2023-07-31T11:23:46;21.80;68.80
12329;DHT22;6230;52.390;10.256;2023-07-31T11:26:12;21.80;68.60
12329;DHT22;6230;52.390;10.256;2023-07-31T11:28:38;21.90;68.60
12329;DHT22;6230;52.390;10.256;2023-07-31T11:31:04;21.90;68.60
12329;DHT22;6230;52.390;10.256;2023-07-31T11:33:30;22.00;68.60
12329;DHT22;6230;52.390;10.256;2023-07-31T11:35:55;22.00;68.40
12329;DHT22;6230;52.390;10.256;2023-07-31T11:38:23;22.10;68.40
12329;DHT22;6230;52.390;10.256;2023-07-31T11:40:49;22.10;68.40
12329;DHT22;6230;52.390;10.256;2023-07-31T11:43:15;22.00;68.30
12329;DHT22;6230;52.390;10.256;2023-07-31T11:45:46;22.00;68.30
12329;DHT22;6230;52.390;10.256;2023-07-31T11:48:19;22.00;68.20
12329;DHT22;6230;52.390;10.256;2023-07-31T11:50:45;22.00;68.30
12329;DHT22;6230;52.390;10.256;2023-07-31T11:53:12;22.00;68.20
12329;DHT22;6230;52.390;10.256;2023-07-31T11:55:38;22.10;68.10
12329;DHT22;6230;52.390;10.256;2023-07-31T11:58:04;22.10;67.90
12329;DHT22;6230;52.390;10.256;2023-07-31T12:00:30;22.10;67.80
12329;DHT22;6230;52.390;10.256;2023-07-31T12:02:56;22.10;67.80
12329;DHT22;6230;52.390;10.256;2023-07-31T12:05:22;22.10;67.70
12329;DHT22;6230;52.390;10.256;2023-07-31T12:07:52;22.10;67.80
12329;DHT22;6230;52.390;10.256;2023-07-31T12:10:31;22.10;67.80
12329;DHT22;6230;52.390;10.256;2023-07-31T12:13:08;22.00;67.90
12329;DHT22;6230;52.390;10.256;2023-07-31T12:15:40;22.00;67.90
12329;DHT22;6230;52.390;10.256;2023-07-31T12:18:07;22.10;67.90
12329;DHT22;6230;52.390;10.256;2023-07-31T12:20:34;22.10;68.00
12329;DHT22;6230;52.390;10.256;2023-07-31T12:22:59;22.10;68.00
12329;DHT22;6230;52.390;10.256;2023-07-31T12:25:29;22.10;67.90
12329;DHT22;6230;52.390;10.256;2023-07-31T12:27:55;22.20;67.90
12329;DHT22;6230;52.390;10.256;2023-07-31T12:30:29;22.20;67.70
12329;DHT22;6230;52.390;10.256;2023-07-31T12:32:54;22.30;67.70
12329;DHT22;6230;52.390;10.256;2023-07-31T12:35:20;22.30;67.50
12329;DHT22;6230;52.390;10.256;2023-07-31T12:37:45;22.40;67.40
12329;DHT22;6230;52.390;10.256;2023-07-31T12:40:11;22.40;67.30
12329;DHT22;6230;52.390;10.256;2023-07-31T12:42:36;22.50;67.30
12329;DHT22;6230;52.390;10.256;2023-07-31T12:45:02;22.50;67.20
12329;DHT22;6230;52.390;10.256;2023-07-31T12:47:29;22.50;67.20
12329;DHT22;6230;52.390;10.256;2023-07-31T12:49:55;22.50;67.20
12329;DHT22;6230;52.390;10.256;2023-07-31T12:52:20;22.50;67.20
12329;DHT22;6230;52.390;10.256;2023-07-31T12:54:46;22.40;67.20
12329;DHT22;6230;52.390;10.256;2023-07-31T12:57:11;22.40;67.40
12329;DHT22;6230;52.390;10.256;2023-07-31T12:59:37;22.30;67.40
12329;DHT22;6230;52.390;10.256;2023-07-31T13:02:03;22.30;67.40
12329;DHT22;6230;52.390;10.256;2023-07-31T13:04:28;22.30;67.50
12329;DHT22;6230;52.390;10.256;2023-07-31T13:06:54;22.30;67.60
12329;DHT22;6230;52.390;10.256;2023-07-31T13:09:20;22.20;67.60
12329;DHT22;6230;52.390;10.256;2023-07-31T13:11:45;22.20;67.60
12329;DHT22;6230;52.390;10.256;2023-07-31T13:14:11;22.20;67.60
12329;DHT22;6230;52.390;10.256;2023-07-31T13:16:37;22.20;67.70
12329;DHT22;6230;52.390;10.256;2023-07-31T13:19:03;22.10;67.80
12329;DHT22;6230;52.390;10.256;2023-07-31T13:21:29;22.10;67.90
12329;DHT22;6230;52.390;10.256;2023-07-31T13:23:55;22.10;68.00
12329;DHT22;6230;52.390;10.256;2023-07-31T13:26:23;22.10;68.10
12329;DHT22;6230;52.390;10.256;2023-07-31T13:28:48;22.10;68.10
12329;DHT22;6230;52.390;10.256;2023-07-31T13:31:14;22.10;68.20
12329;DHT22;6230;52.390;10.256;2023-07-31T13:33:39;22.10;68.20
12329;DHT22;6230;52.390;10.256;2023-07-31T13:36:05;22.20;68.20
12329;DHT22;6230;52.390;10.256;2023-07-31T13:38:31;22.20;68.10
12329;DHT22;6230;52.390;10.256;2023-07-31T13:40:56;22.20;68.10
12329;DHT22;6230;52.390;10.256;2023-07-31T13:43:22;22.20;68.00
12329;DHT22;6230;52.390;10.256;2023-07-31T13:45:47;22.20;67.90
12329;DHT22;6230;52.390;10.256;2023-07-31T13:48:13;22.20;67.80
12329;DHT22;6230;52.390;10.256;2023-07-31T13:50:38;22.20;67.70
12329;DHT22;6230;52.390;10.256;2023-07-31T13:53:04;22.20;67.60
12329;DHT22;6230;52.390;10.256;2023-07-31T13:55:29;22.10;67.70
12329;DHT22;6230;52.390;10.256;2023-07-31T13:57:55;22.10;67.80
12329;DHT22;6230;52.390;10.256;2023-07-31T14:00:21;22.10;67.90
12329;DHT22;6230;52.390;10.256;2023-07-31T14:02:46;22.10;67.90
12329;DHT22;6230;52.390;10.256;2023-07-31T14:05:12;22.10;67.80
12329;DHT22;6230;52.390;10.256;2023-07-31T14:07:37;22.10;67.80
12329;DHT22;6230;52.390;10.256;2023-07-31T14:10:03;22.10;67.70
12329;DHT22;6230;52.390;10.256;2023-07-31T14:12:29;22.10;67.60
12329;DHT22;6230;52.390;10.256;2023-07-31T14:14:56;22.20;67.60
12329;DHT22;6230;52.390;10.256;2023-07-31T14:17:21;22.20;67.50
12329;DHT22;6230;52.390;10.256;2023-07-31T14:19:47;22.20;67.40
12329;DHT22;6230;52.390;10.256;2023-07-31T14:22:12;22.20;67.40
12329;DHT22;6230;52.390;10.256;2023-07-31T14:24:38;22.20;67.40
12329;DHT22;6230;52.390;10.256;2023-07-31T14:27:04;22.20;67.30
12329;DHT22;6230;52.390;10.256;2023-07-31T14:29:30;22.20;67.30
12329;DHT22;6230;52.390;10.256;2023-07-31T14:31:55;22.20;67.30
12329;DHT22;6230;52.390;10.256;2023-07-31T14:34:21;22.20;67.30
12329;DHT22;6230;52.390;10.256;2023-07-31T14:36:46;22.20;68.20
12329;DHT22;6230;52.390;10.256;2023-07-31T14:39:12;22.30;67.40
12329;DHT22;6230;52.390;10.256;2023-07-31T14:41:38;22.30;67.50
12329;DHT22;6230;52.390;10.256;2023-07-31T14:44:03;22.30;67.40
12329;DHT22;6230;52.390;10.256;2023-07-31T14:46:29;22.30;67.40
12329;DHT22;6230;52.390;10.256;2023-07-31T14:48:54;22.30;67.40
12329;DHT22;6230;52.390;10.256;2023-07-31T14:51:20;22.40;67.40
12329;DHT22;6230;52.390;10.256;2023-07-31T14:53:46;22.40;67.20
12329;DHT22;6230;52.390;10.256;2023-07-31T14:56:12;22.50;67.20
12329;DHT22;6230;52.390;10.256;2023-07-31T14:58:38;22.60;67.10
12329;DHT22;6230;52.390;10.256;2023-07-31T15:01:03;22.60;67.00
12329;DHT22;6230;52.390;10.256;2023-07-31T15:03:29;22.60;66.90
12329;DHT22;6230;52.390;10.256;2023-07-31T15:05:54;22.70;66.90
12329;DHT22;6230;52.390;10.256;2023-07-31T15:08:20;22.70;66.80
12329;DHT22;6230;52.390;10.256;2023-07-31T15:10:45;22.60;66.70
12329;DHT22;6230;52.390;10.256;2023-07-31T15:13:11;22.60;66.60
12329;DHT22;6230;52.390;10.256;2023-07-31T15:15:37;22.60;66.70
12329;DHT22;6230;52.390;10.256;2023-07-31T15:18:02;22.60;66.70
12329;DHT22;6230;52.390;10.256;2023-07-31T15:20:28;22.60;66.70
12329;DHT22;6230;52.390;10.256;2023-07-31T15:22:55;22.50;66.60
12329;DHT22;6230;52.390;10.256;2023-07-31T15:25:20;22.50;66.60
12329;DHT22;6230;52.390;10.256;2023-07-31T15:27:46;22.50;66.60
12329;DHT22;6230;52.390;10.256;2023-07-31T15:30:11;22.40;66.50
12329;DHT22;6230;52.390;10.256;2023-07-31T15:32:37;22.40;66.60